sensor_id;sensor_type;location;lat;lon;timestamp;P1;durP1;ratioP1;P2;durP2;ratioP2
15833;SDS011;8017;50.812;4.934;2023-01-15T00:01:48;6.73;;;1.40;;
15833;SDS011;8017;50.812;4.934;2023-01-15T00:04:49;4.77;;;1.30;;
15833;SDS011;8017;50.812;4.934;2023-01-15T00:07:51;4.23;;;1.07;;
15833;SDS011;8017;50.812;4.934;2023-01-15T00:10:53;3.47;;;1.30;;
15833;SDS011;8017;50.812;4.934;2023-01-15T00:13:57;2.53;;;1.10;;
15833;SDS011;8017;50.812;4.934;2023-01-15T00:16:59;3.90;;;1.10;;
15833;SDS011;8017;50.812;4.934;2023-01-15T00:20:01;4.10;;;1.00;;
15833;SDS011;8017;50.812;4.934;2023-01-15T00:23:03;5.17;;;1.00;;
15833;SDS011;8017;50.812;4.934;2023-01-15T00:26:07;6.07;;;1.17;;
15833;SDS011;8017;50.812;4.934;2023-01-15T00:29:30;3.60;;;1.00;;
15833;SDS011;8017;50.812;4.934;2023-01-15T00:32:33;1.87;;;1.13;;
15833;SDS011;8017;50.812;4.934;2023-01-15T00:35:35;5.23;;;1.30;;
15833;SDS011;8017;50.812;4.934;2023-01-15T00:38:37;4.23;;;1.20;;
15833;SDS011;8017;50.812;4.934;2023-01-15T00:41:39;4.37;;;1.20;;
15833;SDS011;8017;50.812;4.934;2023-01-15T00:44:42;5.67;;;1.30;;
15833;SDS011;8017;50.812;4.934;2023-01-15T00:47:45;6.97;;;1.87;;
15833;SDS011;8017;50.812;4.934;2023-01-15T00:50:49;3.67;;;1.20;;
15833;SDS011;8017;50.812;4.934;2023-01-15T00:53:51;7.47;;;1.97;;
15833;SDS011;8017;50.812;4.934;2023-01-15T00:56:53;5.47;;;1.10;;
15833;SDS011;8017;50.812;4.934;2023-01-15T00:59:56;5.53;;;1.53;;
15833;SDS011;8017;50.812;4.934;2023-01-15T01:02:58;5.87;;;1.43;;
15833;SDS011;8017;50.812;4.934;2023-01-15T01:06:01;11.23;;;1.80;;
15833;SDS011;8017;50.812;4.934;2023-01-15T01:09:04;9.57;;;2.03;;
15833;SDS011;8017;50.812;4.934;2023-01-15T01:12:06;6.90;;;1.90;;
15833;SDS011;8017;50.812;4.934;2023-01-15T01:15:09;6.50;;;1.87;;
15833;SDS011;8017;50.812;4.934;2023-01-15T01:18:11;5.53;;;1.63;;
15833;SDS011;8017;50.812;4.934;2023-01-15T01:21:13;8.30;;;1.30;;
15833;SDS011;8017;50.812;4.934;2023-01-15T01:24:17;15.10;;;2.27;;
15833;SDS011;8017;50.812;4.934;2023-01-15T01:27:20;9.53;;;2.20;;
15833;SDS011;8017;50.812;4.934;2023-01-15T01:30:23;7.40;;;1.70;;
15833;SDS011;8017;50.812;4.934;2023-01-15T01:33:25;9.83;;;2.20;;
15833;SDS011;8017;50.812;4.934;2023-01-15T01:36:28;6.73;;;2.17;;
15833;SDS011;8017;50.812;4.934;2023-01-15T01:39:32;6.87;;;1.80;;
15833;SDS011;8017;50.812;4.934;2023-01-15T01:42:34;7.73;;;2.00;;
15833;SDS011;8017;50.812;4.934;2023-01-15T01:45:37;9.13;;;2.10;;
15833;SDS011;8017;50.812;4.934;2023-01-15T01:48:39;6.30;;;1.60;;
15833;SDS011;8017;50.812;4.934;2023-01-15T01:51:42;10.57;;;2.10;;
15833;SDS011;8017;50.812;4.934;2023-01-15T01:54:47;8.03;;;1.60;;
15833;SDS011;8017;50.812;4.934;2023-01-15T01:57:51;6.93;;;1.70;;
15833;SDS011;8017;50.812;4.934;2023-01-15T02:00:57;6.57;;;1.87;;
15833;SDS011;8017;50.812;4.934;2023-01-15T02:04:01;13.93;;;1.90;;
15833;SDS011;8017;50.812;4.934;2023-01-15T02:07:06;7.37;;;1.90;;
15833;SDS011;8017;50.812;4.934;2023-01-15T02:10:12;10.70;;;2.40;;
15833;SDS011;8017;50.812;4.934;2023-01-15T02:13:17;6.63;;;2.33;;
15833;SDS011;8017;50.812;4.934;2023-01-15T02:16:23;9.27;;;2.07;;
15833;SDS011;8017;50.812;4.934;2023-01-15T02:19:33;10.63;;;1.90;;
15833;SDS011;8017;50.812;4.934;2023-01-15T02:22:49;8.53;;;1.80;;
15833;SDS011;8017;50.812;4.934;2023-01-15T02:26:01;9.57;;;2.67;;
15833;SDS011;8017;50.812;4.934;2023-01-15T02:29:26;12.03;;;1.90;;
15833;SDS011;8017;50.812;4.934;2023-01-15T02:32:34;12.50;;;1.70;;
15833;SDS011;8017;50.812;4.934;2023-01-15T02:35:40;6.77;;;2.00;;
15833;SDS011;8017;50.812;4.934;2023-01-15T02:38:46;6.17;;;1.63;;
15833;SDS011;8017;50.812;4.934;2023-01-15T02:41:50;16.40;;;2.00;;
15833;SDS011;8017;50.812;4.934;2023-01-15T02:44:58;8.80;;;1.83;;
15833;SDS011;8017;50.812;4.934;2023-01-15T02:48:03;7.10;;;1.73;;
15833;SDS011;8017;50.812;4.934;2023-01-15T02:51:10;7.20;;;1.90;;
15833;SDS011;8017;50.812;4.934;2023-01-15T02:54:16;8.97;;;1.83;;
15833;SDS011;8017;50.812;4.934;2023-01-15T02:57:19;9.03;;;2.23;;
15833;SDS011;8017;50.812;4.934;2023-01-15T03:00:25;6.53;;;1.87;;
15833;SDS011;8017;50.812;4.934;2023-01-15T03:03:33;6.37;;;1.60;;
15833;SDS011;8017;50.812;4.934;2023-01-15T03:06:43;10.40;;;2.53;;
15833;SDS011;8017;50.812;4.934;2023-01-15T03:09:49;6.63;;;2.10;;
15833;SDS011;8017;50.812;4.934;2023-01-15T03:12:54;8.13;;;1.70;;
15833;SDS011;8017;50.812;4.934;2023-01-15T03:16:05;6.97;;;2.00;;
15833;SDS011;8017;50.812;4.934;2023-01-15T03:19:33;6.63;;;1.63;;
15833;SDS011;8017;50.812;4.934;2023-01-15T03:22:43;6.83;;;2.00;;
15833;SDS011;8017;50.812;4.934;2023-01-15T03:25:47;6.33;;;1.73;;
15833;SDS011;8017;50.812;4.934;2023-01-15T03:28:50;5.93;;;1.80;;
15833;SDS011;8017;50.812;4.934;2023-01-15T03:31:54;8.53;;;1.40;;
15833;SDS011;8017;50.812;4.934;2023-01-15T03:34:56;7.13;;;1.80;;
15833;SDS011;8017;50.812;4.934;2023-01-15T03:37:59;7.30;;;1.33;;
15833;SDS011;8017;50.812;4.934;2023-01-15T03:41:06;5.50;;;1.57;;
15833;SDS011;8017;50.812;4.934;2023-01-15T03:44:17;6.80;;;1.73;;
15833;SDS011;8017;50.812;4.934;2023-01-15T03:47:32;5.70;;;1.37;;
15833;SDS011;8017;50.812;4.934;2023-01-15T03:50:43;6.30;;;1.03;;
15833;SDS011;8017;50.812;4.934;2023-01-15T03:53:50;10.30;;;1.53;;
15833;SDS011;8017;50.812;4.934;2023-01-15T03:56:56;6.90;;;1.67;;
15833;SDS011;8017;50.812;4.934;2023-01-15T04:00:03;5.97;;;1.70;;
15833;SDS011;8017;50.812;4.934;2023-01-15T04:03:11;7.07;;;1.77;;
15833;SDS011;8017;50.812;4.934;2023-01-15T04:06:16;7.83;;;2.03;;
15833;SDS011;8017;50.812;4.934;2023-01-15T04:09:19;4.97;;;1.07;;
15833;SDS011;8017;50.812;4.934;2023-01-15T04:12:21;3.20;;;1.43;;
15833;SDS011;8017;50.812;4.934;2023-01-15T04:15:23;6.90;;;1.50;;
15833;SDS011;8017;50.812;4.934;2023-01-15T04:18:26;7.60;;;1.40;;
15833;SDS011;8017;50.812;4.934;2023-01-15T04:21:28;7.70;;;1.67;;
15833;SDS011;8017;50.812;4.934;2023-01-15T04:24:30;6.40;;;2.03;;
15833;SDS011;8017;50.812;4.934;2023-01-15T04:27:32;8.50;;;1.53;;
15833;SDS011;8017;50.812;4.934;2023-01-15T04:30:34;7.30;;;1.80;;
15833;SDS011;8017;50.812;4.934;2023-01-15T04:33:38;4.70;;;1.43;;
15833;SDS011;8017;50.812;4.934;2023-01-15T04:36:40;7.10;;;1.50;;
15833;SDS011;8017;50.812;4.934;2023-01-15T04:39:45;4.50;;;1.30;;
15833;SDS011;8017;50.812;4.934;2023-01-15T04:42:47;4.80;;;1.63;;
15833;SDS011;8017;50.812;4.934;2023-01-15T04:46:06;5.93;;;1.63;;
15833;SDS011;8017;50.812;4.934;2023-01-15T04:49:11;7.97;;;1.53;;
15833;SDS011;8017;50.812;4.934;2023-01-15T04:52:14;4.40;;;1.60;;
15833;SDS011;8017;50.812;4.934;2023-01-15T04:55:16;5.80;;;1.43;;
15833;SDS011;8017;50.812;4.934;2023-01-15T04:58:18;7.13;;;1.43;;
15833;SDS011;8017;50.812;4.934;2023-01-15T05:01:20;7.83;;;1.60;;
15833;SDS011;8017;50.812;4.934;2023-01-15T05:04:23;3.33;;;1.20;;
15833;SDS011;8017;50.812;4.934;2023-01-15T05:07:25;6.57;;;1.60;;
15833;SDS011;8017;50.812;4.934;2023-01-15T05:10:27;5.67;;;1.60;;
15833;SDS011;8017;50.812;4.934;2023-01-15T05:13:29;9.17;;;1.60;;
15833;SDS011;8017;50.812;4.934;2023-01-15T05:16:32;4.30;;;0.93;;
15833;SDS011;8017;50.812;4.934;2023-01-15T05:19:35;5.60;;;1.20;;
15833;SDS011;8017;50.812;4.934;2023-01-15T05:22:37;6.10;;;1.80;;
15833;SDS011;8017;50.812;4.934;2023-01-15T05:25:39;5.63;;;1.43;;
15833;SDS011;8017;50.812;4.934;2023-01-15T05:28:41;6.07;;;1.57;;
15833;SDS011;8017;50.812;4.934;2023-01-15T05:31:43;8.40;;;2.33;;
15833;SDS011;8017;50.812;4.934;2023-01-15T05:34:47;5.43;;;1.57;;
15833;SDS011;8017;50.812;4.934;2023-01-15T05:37:48;6.07;;;1.53;;
15833;SDS011;8017;50.812;4.934;2023-01-15T05:40:50;6.33;;;1.73;;
15833;SDS011;8017;50.812;4.934;2023-01-15T05:43:53;3.13;;;1.40;;
15833;SDS011;8017;50.812;4.934;2023-01-15T05:46:56;6.17;;;1.23;;
15833;SDS011;8017;50.812;4.934;2023-01-15T05:50:03;9.00;;;1.40;;
15833;SDS011;8017;50.812;4.934;2023-01-15T05:53:05;3.43;;;1.70;;
15833;SDS011;8017;50.812;4.934;2023-01-15T05:56:07;7.93;;;2.10;;
15833;SDS011;8017;50.812;4.934;2023-01-15T05:59:10;3.97;;;1.40;;
15833;SDS011;8017;50.812;4.934;2023-01-15T06:02:12;5.03;;;1.90;;
15833;SDS011;8017;50.812;4.934;2023-01-15T06:05:16;4.30;;;1.30;;
15833;SDS011;8017;50.812;4.934;2023-01-15T06:08:19;3.87;;;1.30;;
15833;SDS011;8017;50.812;4.934;2023-01-15T06:11:22;3.63;;;1.23;;
15833;SDS011;8017;50.812;4.934;2023-01-15T06:14:24;2.60;;;1.00;;
15833;SDS011;8017;50.812;4.934;2023-01-15T06:17:26;3.63;;;1.30;;
15833;SDS011;8017;50.812;4.934;2023-01-15T06:20:29;3.37;;;1.03;;
15833;SDS011;8017;50.812;4.934;2023-01-15T06:23:32;5.50;;;1.30;;
15833;SDS011;8017;50.812;4.934;2023-01-15T06:26:36;7.90;;;1.77;;
15833;SDS011;8017;50.812;4.934;2023-01-15T06:29:38;6.40;;;1.70;;
15833;SDS011;8017;50.812;4.934;2023-01-15T06:32:40;6.23;;;1.63;;
15833;SDS011;8017;50.812;4.934;2023-01-15T06:35:43;3.03;;;1.37;;
15833;SDS011;8017;50.812;4.934;2023-01-15T06:38:46;6.27;;;2.33;;
15833;SDS011;8017;50.812;4.934;2023-01-15T06:41:48;7.10;;;1.83;;
15833;SDS011;8017;50.812;4.934;2023-01-15T06:45:04;3.23;;;0.80;;
15833;SDS011;8017;50.812;4.934;2023-01-15T06:48:24;4.67;;;0.80;;
15833;SDS011;8017;50.812;4.934;2023-01-15T06:51:28;3.83;;;1.03;;
15833;SDS011;8017;50.812;4.934;2023-01-15T06:54:30;4.03;;;1.30;;
15833;SDS011;8017;50.812;4.934;2023-01-15T06:57:32;3.57;;;1.67;;
15833;SDS011;8017;50.812;4.934;2023-01-15T07:00:34;4.60;;;1.43;;
15833;SDS011;8017;50.812;4.934;2023-01-15T07:03:36;4.97;;;1.70;;
15833;SDS011;8017;50.812;4.934;2023-01-15T07:06:40;8.33;;;1.60;;
15833;SDS011;8017;50.812;4.934;2023-01-15T07:09:42;8.17;;;1.70;;
15833;SDS011;8017;50.812;4.934;2023-01-15T07:12:44;7.93;;;1.90;;
15833;SDS011;8017;50.812;4.934;2023-01-15T07:15:46;5.03;;;1.60;;
15833;SDS011;8017;50.812;4.934;2023-01-15T07:18:48;5.43;;;1.77;;
15833;SDS011;8017;50.812;4.934;2023-01-15T07:21:51;9.63;;;1.73;;
15833;SDS011;8017;50.812;4.934;2023-01-15T07:24:53;6.77;;;1.73;;
15833;SDS011;8017;50.812;4.934;2023-01-15T07:27:55;10.50;;;2.27;;
15833;SDS011;8017;50.812;4.934;2023-01-15T07:30:57;7.37;;;2.00;;
15833;SDS011;8017;50.812;4.934;2023-01-15T07:33:59;9.47;;;1.77;;
15833;SDS011;8017;50.812;4.934;2023-01-15T07:37:02;10.13;;;1.93;;
15833;SDS011;8017;50.812;4.934;2023-01-15T07:40:05;8.73;;;1.70;;
15833;SDS011;8017;50.812;4.934;2023-01-15T07:43:07;4.63;;;1.60;;
15833;SDS011;8017;50.812;4.934;2023-01-15T07:46:27;7.33;;;1.70;;
15833;SDS011;8017;50.812;4.934;2023-01-15T07:49:47;6.40;;;1.90;;
15833;SDS011;8017;50.812;4.934;2023-01-15T07:52:50;6.07;;;1.83;;
15833;SDS011;8017;50.812;4.934;2023-01-15T07:55:52;6.67;;;1.60;;
15833;SDS011;8017;50.812;4.934;2023-01-15T07:58:54;8.63;;;1.60;;
15833;SDS011;8017;50.812;4.934;2023-01-15T08:01:56;6.77;;;2.00;;
15833;SDS011;8017;50.812;4.934;2023-01-15T08:04:58;9.70;;;1.90;;
15833;SDS011;8017;50.812;4.934;2023-01-15T08:08:01;9.77;;;2.33;;
15833;SDS011;8017;50.812;4.934;2023-01-15T08:11:03;6.57;;;2.10;;
15833;SDS011;8017;50.812;4.934;2023-01-15T08:14:23;4.17;;;1.83;;
15833;SDS011;8017;50.812;4.934;2023-01-15T08:17:43;7.17;;;2.20;;
15833;SDS011;8017;50.812;4.934;2023-01-15T08:20:46;8.83;;;2.07;;
15833;SDS011;8017;50.812;4.934;2023-01-15T08:23:49;5.57;;;1.70;;
15833;SDS011;8017;50.812;4.934;2023-01-15T08:26:51;6.73;;;2.47;;
15833;SDS011;8017;50.812;4.934;2023-01-15T08:29:53;9.33;;;1.87;;
15833;SDS011;8017;50.812;4.934;2023-01-15T08:32:58;7.47;;;1.83;;
15833;SDS011;8017;50.812;4.934;2023-01-15T08:36:02;7.67;;;1.60;;
15833;SDS011;8017;50.812;4.934;2023-01-15T08:39:05;8.63;;;2.07;;
15833;SDS011;8017;50.812;4.934;2023-01-15T08:42:07;9.97;;;1.73;;
15833;SDS011;8017;50.812;4.934;2023-01-15T08:45:10;7.67;;;1.37;;
15833;SDS011;8017;50.812;4.934;2023-01-15T08:48:12;6.63;;;1.60;;
15833;SDS011;8017;50.812;4.934;2023-01-15T08:51:14;10.23;;;1.60;;
15833;SDS011;8017;50.812;4.934;2023-01-15T08:54:18;7.50;;;1.83;;
15833;SDS011;8017;50.812;4.934;2023-01-15T08:57:21;9.20;;;1.60;;
15833;SDS011;8017;50.812;4.934;2023-01-15T09:00:24;10.93;;;1.87;;
15833;SDS011;8017;50.812;4.934;2023-01-15T09:03:26;8.60;;;2.03;;
15833;SDS011;8017;50.812;4.934;2023-01-15T09:06:28;9.17;;;2.13;;
15833;SDS011;8017;50.812;4.934;2023-01-15T09:09:31;5.33;;;1.50;;
15833;SDS011;8017;50.812;4.934;2023-01-15T09:12:34;8.03;;;1.83;;
15833;SDS011;8017;50.812;4.934;2023-01-15T09:15:36;8.27;;;2.00;;
15833;SDS011;8017;50.812;4.934;2023-01-15T09:18:38;5.40;;;1.60;;
15833;SDS011;8017;50.812;4.934;2023-01-15T09:21:40;6.60;;;1.67;;
15833;SDS011;8017;50.812;4.934;2023-01-15T09:24:44;8.57;;;1.80;;
15833;SDS011;8017;50.812;4.934;2023-01-15T09:27:46;9.23;;;1.73;;
15833;SDS011;8017;50.812;4.934;2023-01-15T09:30:49;3.57;;;1.17;;
15833;SDS011;8017;50.812;4.934;2023-01-15T09:33:51;6.90;;;1.70;;
15833;SDS011;8017;50.812;4.934;2023-01-15T09:36:56;4.03;;;1.10;;
15833;SDS011;8017;50.812;4.934;2023-01-15T09:40:02;5.93;;;1.40;;
15833;SDS011;8017;50.812;4.934;2023-01-15T09:43:05;4.03;;;1.57;;
15833;SDS011;8017;50.812;4.934;2023-01-15T09:46:16;6.60;;;1.50;;
15833;SDS011;8017;50.812;4.934;2023-01-15T09:49:24;5.13;;;1.40;;
15833;SDS011;8017;50.812;4.934;2023-01-15T09:52:46;4.87;;;1.17;;
15833;SDS011;8017;50.812;4.934;2023-01-15T09:56:00;5.27;;;1.40;;
15833;SDS011;8017;50.812;4.934;2023-01-15T09:59:06;3.67;;;1.30;;
15833;SDS011;8017;50.812;4.934;2023-01-15T10:02:20;3.87;;;1.20;;
15833;SDS011;8017;50.812;4.934;2023-01-15T10:05:25;5.37;;;1.40;;
15833;SDS011;8017;50.812;4.934;2023-01-15T10:08:31;4.37;;;1.37;;
15833;SDS011;8017;50.812;4.934;2023-01-15T10:11:39;5.77;;;1.67;;
15833;SDS011;8017;50.812;4.934;2023-01-15T10:15:11;4.00;;;1.67;;
15833;SDS011;8017;50.812;4.934;2023-01-15T10:18:21;4.73;;;1.33;;
15833;SDS011;8017;50.812;4.934;2023-01-15T10:21:26;5.00;;;1.13;;
15833;SDS011;8017;50.812;4.934;2023-01-15T10:24:34;2.03;;;0.90;;
15833;SDS011;8017;50.812;4.934;2023-01-15T10:27:40;4.00;;;1.10;;
15833;SDS011;8017;50.812;4.934;2023-01-15T10:30:49;2.70;;;0.93;;
15833;SDS011;8017;50.812;4.934;2023-01-15T10:33:58;5.50;;;1.27;;
15833;SDS011;8017;50.812;4.934;2023-01-15T10:37:15;4.10;;;1.20;;
15833;SDS011;8017;50.812;4.934;2023-01-15T10:40:29;3.80;;;1.27;;
15833;SDS011;8017;50.812;4.934;2023-01-15T10:43:56;2.70;;;1.20;;
15833;SDS011;8017;50.812;4.934;2023-01-15T10:47:06;3.63;;;1.10;;
15833;SDS011;8017;50.812;4.934;2023-01-15T10:50:14;6.90;;;1.77;;
15833;SDS011;8017;50.812;4.934;2023-01-15T10:53:21;3.80;;;1.33;;
15833;SDS011;8017;50.812;4.934;2023-01-15T10:56:30;7.00;;;1.20;;
15833;SDS011;8017;50.812;4.934;2023-01-15T10:59:40;4.63;;;1.23;;
15833;SDS011;8017;50.812;4.934;2023-01-15T11:02:48;7.23;;;1.50;;
15833;SDS011;8017;50.812;4.934;2023-01-15T11:06:00;7.03;;;1.83;;
15833;SDS011;8017;50.812;4.934;2023-01-15T11:09:03;10.77;;;1.93;;
15833;SDS011;8017;50.812;4.934;2023-01-15T11:12:11;4.27;;;1.70;;
15833;SDS011;8017;50.812;4.934;2023-01-15T11:15:39;5.17;;;1.27;;
15833;SDS011;8017;50.812;4.934;2023-01-15T11:19:02;3.73;;;1.63;;
15833;SDS011;8017;50.812;4.934;2023-01-15T11:22:23;6.83;;;1.50;;
15833;SDS011;8017;50.812;4.934;2023-01-15T11:25:28;3.40;;;1.53;;
15833;SDS011;8017;50.812;4.934;2023-01-15T11:28:31;2.47;;;1.20;;
15833;SDS011;8017;50.812;4.934;2023-01-15T11:31:37;5.60;;;1.30;;
15833;SDS011;8017;50.812;4.934;2023-01-15T11:34:39;4.13;;;1.10;;
15833;SDS011;8017;50.812;4.934;2023-01-15T11:37:41;2.90;;;1.20;;
15833;SDS011;8017;50.812;4.934;2023-01-15T11:40:49;5.60;;;1.10;;
15833;SDS011;8017;50.812;4.934;2023-01-15T11:43:53;4.90;;;1.40;;
15833;SDS011;8017;50.812;4.934;2023-01-15T11:47:16;7.73;;;1.40;;
15833;SDS011;8017;50.812;4.934;2023-01-15T11:50:38;4.97;;;1.60;;
15833;SDS011;8017;50.812;4.934;2023-01-15T11:53:49;5.40;;;1.33;;
15833;SDS011;8017;50.812;4.934;2023-01-15T11:56:54;5.83;;;1.50;;
15833;SDS011;8017;50.812;4.934;2023-01-15T11:59:57;6.43;;;1.30;;
15833;SDS011;8017;50.812;4.934;2023-01-15T12:03:02;3.57;;;1.20;;
15833;SDS011;8017;50.812;4.934;2023-01-15T12:06:12;6.53;;;1.90;;
15833;SDS011;8017;50.812;4.934;2023-01-15T12:09:19;3.63;;;1.57;;
15833;SDS011;8017;50.812;4.934;2023-01-15T12:12:29;4.20;;;1.20;;
15833;SDS011;8017;50.812;4.934;2023-01-15T12:15:41;3.60;;;1.20;;
15833;SDS011;8017;50.812;4.934;2023-01-15T12:18:58;5.23;;;1.47;;
15833;SDS011;8017;50.812;4.934;2023-01-15T12:22:20;5.77;;;1.83;;
15833;SDS011;8017;50.812;4.934;2023-01-15T12:25:32;4.33;;;1.60;;
15833;SDS011;8017;50.812;4.934;2023-01-15T12:28:39;3.37;;;1.17;;
15833;SDS011;8017;50.812;4.934;2023-01-15T12:31:53;4.27;;;1.23;;
15833;SDS011;8017;50.812;4.934;2023-01-15T12:35:01;6.33;;;1.60;;
15833;SDS011;8017;50.812;4.934;2023-01-15T12:38:08;5.80;;;1.57;;
15833;SDS011;8017;50.812;4.934;2023-01-15T12:41:15;3.87;;;1.40;;
15833;SDS011;8017;50.812;4.934;2023-01-15T12:44:30;5.00;;;1.03;;
15833;SDS011;8017;50.812;4.934;2023-01-15T12:47:57;4.47;;;1.30;;
15833;SDS011;8017;50.812;4.934;2023-01-15T12:51:07;3.20;;;1.10;;
15833;SDS011;8017;50.812;4.934;2023-01-15T12:54:19;2.20;;;1.10;;
15833;SDS011;8017;50.812;4.934;2023-01-15T12:57:27;5.30;;;1.17;;
15833;SDS011;8017;50.812;4.934;2023-01-15T13:00:34;6.00;;;1.50;;
15833;SDS011;8017;50.812;4.934;2023-01-15T13:03:45;5.43;;;1.40;;
15833;SDS011;8017;50.812;4.934;2023-01-15T13:06:57;5.03;;;1.17;;
15833;SDS011;8017;50.812;4.934;2023-01-15T13:10:05;3.87;;;0.90;;
15833;SDS011;8017;50.812;4.934;2023-01-15T13:13:14;6.90;;;1.57;;
15833;SDS011;8017;50.812;4.934;2023-01-15T13:16:18;1.93;;;1.00;;
15833;SDS011;8017;50.812;4.934;2023-01-15T13:19:27;3.10;;;1.30;;
15833;SDS011;8017;50.812;4.934;2023-01-15T13:22:40;5.97;;;1.20;;
15833;SDS011;8017;50.812;4.934;2023-01-15T13:25:53;5.38;;;1.13;;
15833;SDS011;8017;50.812;4.934;2023-01-15T13:29:08;6.57;;;1.30;;
15833;SDS011;8017;50.812;4.934;2023-01-15T13:32:18;4.80;;;1.23;;
15833;SDS011;8017;50.812;4.934;2023-01-15T13:35:26;5.40;;;1.50;;
15833;SDS011;8017;50.812;4.934;2023-01-15T13:38:34;3.03;;;1.40;;
15833;SDS011;8017;50.812;4.934;2023-01-15T13:41:40;3.57;;;1.17;;
15833;SDS011;8017;50.812;4.934;2023-01-15T13:45:02;2.50;;;1.00;;
15833;SDS011;8017;50.812;4.934;2023-01-15T13:48:07;2.67;;;1.07;;
15833;SDS011;8017;50.812;4.934;2023-01-15T13:51:21;2.27;;;1.10;;
15833;SDS011;8017;50.812;4.934;2023-01-15T13:54:31;4.00;;;1.10;;
15833;SDS011;8017;50.812;4.934;2023-01-15T13:57:37;3.13;;;1.20;;
15833;SDS011;8017;50.812;4.934;2023-01-15T14:00:40;4.87;;;1.43;;
15833;SDS011;8017;50.812;4.934;2023-01-15T14:03:52;4.40;;;1.37;;
15833;SDS011;8017;50.812;4.934;2023-01-15T14:07:02;5.07;;;1.10;;
15833;SDS011;8017;50.812;4.934;2023-01-15T14:10:35;5.47;;;1.40;;
15833;SDS011;8017;50.812;4.934;2023-01-15T14:13:49;5.00;;;1.20;;
15833;SDS011;8017;50.812;4.934;2023-01-15T14:17:07;4.13;;;1.30;;
15833;SDS011;8017;50.812;4.934;2023-01-15T14:20:51;2.37;;;1.10;;
15833;SDS011;8017;50.812;4.934;2023-01-15T14:24:07;4.17;;;1.20;;
15833;SDS011;8017;50.812;4.934;2023-01-15T14:27:33;3.50;;;0.90;;
15833;SDS011;8017;50.812;4.934;2023-01-15T14:30:54;2.73;;;1.00;;
15833;SDS011;8017;50.812;4.934;2023-01-15T14:34:10;2.90;;;1.20;;
15833;SDS011;8017;50.812;4.934;2023-01-15T14:37:23;5.30;;;1.13;;
15833;SDS011;8017;50.812;4.934;2023-01-15T14:40:30;7.23;;;1.10;;
15833;SDS011;8017;50.812;4.934;2023-01-15T14:43:35;3.47;;;1.20;;
15833;SDS011;8017;50.812;4.934;2023-01-15T14:46:41;4.20;;;1.10;;
15833;SDS011;8017;50.812;4.934;2023-01-15T14:49:44;1.43;;;0.93;;
15833;SDS011;8017;50.812;4.934;2023-01-15T14:52:48;1.50;;;0.90;;
15833;SDS011;8017;50.812;4.934;2023-01-15T14:55:52;4.00;;;1.17;;
15833;SDS011;8017;50.812;4.934;2023-01-15T14:59:00;3.50;;;1.10;;
15833;SDS011;8017;50.812;4.934;2023-01-15T15:02:05;4.90;;;1.40;;
15833;SDS011;8017;50.812;4.934;2023-01-15T15:05:16;3.93;;;1.20;;
15833;SDS011;8017;50.812;4.934;2023-01-15T15:08:20;3.03;;;1.00;;
15833;SDS011;8017;50.812;4.934;2023-01-15T15:11:30;3.07;;;1.03;;
15833;SDS011;8017;50.812;4.934;2023-01-15T15:14:59;4.37;;;1.50;;
15833;SDS011;8017;50.812;4.934;2023-01-15T15:18:06;3.80;;;1.07;;
15833;SDS011;8017;50.812;4.934;2023-01-15T15:21:19;4.37;;;0.90;;
15833;SDS011;8017;50.812;4.934;2023-01-15T15:24:27;4.90;;;1.30;;
15833;SDS011;8017;50.812;4.934;2023-01-15T15:27:33;2.63;;;1.00;;
15833;SDS011;8017;50.812;4.934;2023-01-15T15:30:39;3.63;;;1.40;;
15833;SDS011;8017;50.812;4.934;2023-01-15T15:33:43;4.10;;;0.90;;
15833;SDS011;8017;50.812;4.934;2023-01-15T15:36:46;2.20;;;0.87;;
15833;SDS011;8017;50.812;4.934;2023-01-15T15:42:56;3.83;;;1.20;;
15833;SDS011;8017;50.812;4.934;2023-01-15T15:46:24;4.23;;;1.53;;
15833;SDS011;8017;50.812;4.934;2023-01-15T15:49:46;3.50;;;1.10;;
15833;SDS011;8017;50.812;4.934;2023-01-15T15:52:48;4.30;;;1.40;;
15833;SDS011;8017;50.812;4.934;2023-01-15T15:55:50;3.97;;;1.70;;
15833;SDS011;8017;50.812;4.934;2023-01-15T15:58:54;2.70;;;1.23;;
15833;SDS011;8017;50.812;4.934;2023-01-15T16:02:06;5.00;;;1.30;;
15833;SDS011;8017;50.812;4.934;2023-01-15T16:05:19;3.47;;;1.20;;
15833;SDS011;8017;50.812;4.934;2023-01-15T16:08:23;5.17;;;1.40;;
15833;SDS011;8017;50.812;4.934;2023-01-15T16:11:26;3.77;;;1.27;;
15833;SDS011;8017;50.812;4.934;2023-01-15T16:14:28;3.80;;;1.20;;
15833;SDS011;8017;50.812;4.934;2023-01-15T16:17:37;3.10;;;1.30;;
15833;SDS011;8017;50.812;4.934;2023-01-15T16:20:41;1.60;;;1.10;;
15833;SDS011;8017;50.812;4.934;2023-01-15T16:23:53;3.80;;;1.30;;
15833;SDS011;8017;50.812;4.934;2023-01-15T16:26:58;5.67;;;1.53;;
15833;SDS011;8017;50.812;4.934;2023-01-15T16:30:02;4.10;;;1.27;;
15833;SDS011;8017;50.812;4.934;2023-01-15T16:33:05;3.70;;;1.30;;
15833;SDS011;8017;50.812;4.934;2023-01-15T16:36:08;2.33;;;1.00;;
15833;SDS011;8017;50.812;4.934;2023-01-15T16:42:24;3.30;;;1.00;;
15833;SDS011;8017;50.812;4.934;2023-01-15T16:45:28;1.97;;;1.20;;
15833;SDS011;8017;50.812;4.934;2023-01-15T16:48:32;2.90;;;1.20;;
15833;SDS011;8017;50.812;4.934;2023-01-15T16:51:37;3.00;;;1.10;;
15833;SDS011;8017;50.812;4.934;2023-01-15T16:54:42;3.57;;;1.20;;
15833;SDS011;8017;50.812;4.934;2023-01-15T16:57:45;2.17;;;1.43;;
15833;SDS011;8017;50.812;4.934;2023-01-15T17:00:48;3.80;;;2.00;;
15833;SDS011;8017;50.812;4.934;2023-01-15T17:03:56;4.40;;;1.40;;
15833;SDS011;8017;50.812;4.934;2023-01-15T17:06:59;4.90;;;1.27;;
15833;SDS011;8017;50.812;4.934;2023-01-15T17:10:03;3.23;;;1.30;;
15833;SDS011;8017;50.812;4.934;2023-01-15T17:13:14;4.93;;;1.20;;
15833;SDS011;8017;50.812;4.934;2023-01-15T17:16:18;3.13;;;1.43;;
15833;SDS011;8017;50.812;4.934;2023-01-15T17:19:22;6.73;;;1.87;;
15833;SDS011;8017;50.812;4.934;2023-01-15T17:22:25;2.67;;;1.20;;
15833;SDS011;8017;50.812;4.934;2023-01-15T17:25:30;6.23;;;1.57;;
15833;SDS011;8017;50.812;4.934;2023-01-15T17:28:34;2.93;;;1.37;;
15833;SDS011;8017;50.812;4.934;2023-01-15T17:31:36;7.00;;;2.00;;
15833;SDS011;8017;50.812;4.934;2023-01-15T17:34:40;2.73;;;1.43;;
15833;SDS011;8017;50.812;4.934;2023-01-15T17:37:42;3.70;;;1.80;;
15833;SDS011;8017;50.812;4.934;2023-01-15T17:40:44;4.73;;;1.67;;
15833;SDS011;8017;50.812;4.934;2023-01-15T17:43:47;8.90;;;1.87;;
15833;SDS011;8017;50.812;4.934;2023-01-15T17:46:49;4.63;;;1.87;;
15833;SDS011;8017;50.812;4.934;2023-01-15T17:49:52;4.70;;;1.80;;
15833;SDS011;8017;50.812;4.934;2023-01-15T17:52:54;3.57;;;1.73;;
15833;SDS011;8017;50.812;4.934;2023-01-15T17:55:56;6.03;;;2.17;;
15833;SDS011;8017;50.812;4.934;2023-01-15T17:59:15;6.33;;;2.20;;
15833;SDS011;8017;50.812;4.934;2023-01-15T18:02:34;7.43;;;2.13;;
15833;SDS011;8017;50.812;4.934;2023-01-15T18:05:55;4.97;;;2.13;;
15833;SDS011;8017;50.812;4.934;2023-01-15T18:08:57;7.30;;;1.80;;
15833;SDS011;8017;50.812;4.934;2023-01-15T18:12:01;4.80;;;2.03;;
15833;SDS011;8017;50.812;4.934;2023-01-15T18:15:04;5.67;;;2.30;;
15833;SDS011;8017;50.812;4.934;2023-01-15T18:18:07;5.50;;;1.87;;
15833;SDS011;8017;50.812;4.934;2023-01-15T18:21:11;3.80;;;1.50;;
15833;SDS011;8017;50.812;4.934;2023-01-15T18:24:13;5.53;;;2.00;;
15833;SDS011;8017;50.812;4.934;2023-01-15T18:27:16;6.27;;;1.97;;
15833;SDS011;8017;50.812;4.934;2023-01-15T18:30:18;6.83;;;2.40;;
15833;SDS011;8017;50.812;4.934;2023-01-15T18:33:20;6.37;;;2.23;;
15833;SDS011;8017;50.812;4.934;2023-01-15T18:36:23;5.43;;;1.77;;
15833;SDS011;8017;50.812;4.934;2023-01-15T18:39:25;6.90;;;1.90;;
15833;SDS011;8017;50.812;4.934;2023-01-15T18:42:29;6.43;;;2.03;;
15833;SDS011;8017;50.812;4.934;2023-01-15T18:45:53;5.20;;;1.90;;
15833;SDS011;8017;50.812;4.934;2023-01-15T18:49:27;9.60;;;2.67;;
15833;SDS011;8017;50.812;4.934;2023-01-15T18:52:31;8.73;;;2.27;;
15833;SDS011;8017;50.812;4.934;2023-01-15T18:55:48;5.53;;;2.20;;
15833;SDS011;8017;50.812;4.934;2023-01-15T18:58:50;9.13;;;2.00;;
15833;SDS011;8017;50.812;4.934;2023-01-15T19:01:52;9.07;;;2.53;;
15833;SDS011;8017;50.812;4.934;2023-01-15T19:04:55;7.13;;;2.00;;
15833;SDS011;8017;50.812;4.934;2023-01-15T19:08:00;5.17;;;2.27;;